Time;durP1;ratioP1;P1;durP2;ratioP2;P2;SDS_P1;SDS_P2;PMS_P1;PMS_P2;Temp;Humidity;BMP_temperature;BMP_pressure;BME280_temperature;BME280_humidity;BME280_pressure;Samples;Min_cycle;Max_cycle;Signal;HPM_P1;HPM_P2
2022/12/15 00:40:58;;;;;;;44.42;25.80;;;;;;;-6.32;100.00;101196.03;1743114;82;22068;-62
2022/12/15 00:43:26;;;;;;;43.45;26.60;;;;;;;-6.42;100.00;101198.48;1743514;82;21078;-59
2022/12/15 00:48:39;;;;;;;47.15;28.32;;;;;;;-6.62;100.00;101208.84;1743573;82;21139;-63
2022/12/15 00:51:06;;;;;;;44.73;27.00;;;;;;;-6.70;100.00;101213.78;1740351;82;21030;-60
2022/12/15 01:21:31;;;;;;;43.40;27.27;;;;;;;-6.75;100.00;101168.27;1791118;79;20973;-65
2022/12/15 01:23:58;;;;;;;39.60;24.07;;;;;;;-6.76;100.00;101169.60;1789911;78;21053;-61
2022/12/15 01:26:26;;;;;;;43.48;25.30;;;;;;;-6.76;100.00;101170.88;1788843;79;20984;-61
2022/12/15 01:28:53;;;;;;;40.63;24.25;;;;;;;-6.76;100.00;101169.60;1787240;79;21308;-61
2022/12/15 01:31:20;;;;;;;48.58;26.50;;;;;;;-6.75;100.00;101152.23;1783689;79;21043;-62
2022/12/15 01:33:47;;;;;;;44.70;25.72;;;;;;;-6.74;100.00;101156.00;1780096;79;21469;-60
2022/12/15 01:36:14;;;;;;;44.30;25.02;;;;;;;-6.73;100.00;101153.85;1797836;79;21028;-61
2022/12/15 01:38:42;;;;;;;41.98;24.85;;;;;;;-6.70;100.00;101151.66;1798598;79;21086;-60
2022/12/15 01:41:09;;;;;;;43.42;25.02;;;;;;;-6.70;100.00;101143.62;1798433;79;21192;-60
2022/12/15 01:43:38;;;;;;;42.65;24.45;;;;;;;-6.69;100.00;101139.37;1798588;79;20995;-62
2022/12/15 01:46:12;;;;;;;41.63;24.90;;;;;;;-6.67;100.00;101133.79;1798118;79;21042;-61
2022/12/15 01:49:00;;;;;;;38.00;23.20;;;;;;;-6.67;100.00;101140.95;1798391;79;21047;-61
2022/12/15 01:51:34;;;;;;;41.50;22.85;;;;;;;-6.65;100.00;101130.78;1795409;79;21458;-63
2022/12/15 01:54:17;;;;;;;34.35;20.15;;;;;;;-6.64;100.00;101142.56;1798263;79;21229;-62
2022/12/15 01:56:47;;;;;;;34.25;19.45;;;;;;;-6.62;100.00;101139.55;1797987;79;20917;-61
2022/12/15 01:59:18;;;;;;;28.15;17.50;;;;;;;-6.61;100.00;101143.73;1797388;79;21544;-63
2022/12/15 02:01:45;;;;;;;33.85;18.48;;;;;;;-6.58;100.00;101133.94;1798201;79;22018;-65
2022/12/15 02:04:13;;;;;;;35.00;21.20;;;;;;;-6.56;100.00;101130.90;1798449;79;20897;-60
2022/12/15 02:09:31;;;;;;;34.48;18.07;;;;;;;-6.54;100.00;101140.12;1766232;81;21542;-61
2022/12/15 02:12:03;;;;;;;31.27;18.57;;;;;;;-6.53;100.00;101137.96;1766963;81;21477;-61
2022/12/15 02:14:46;;;;;;;31.05;18.37;;;;;;;-6.53;100.00;101134.16;1766833;81;21006;-60
2022/12/15 02:17:36;;;;;;;29.80;19.05;;;;;;;-6.50;100.00;101130.70;1757718;81;22198;-61
2022/12/15 02:20:29;;;;;;;32.13;19.05;;;;;;;-6.51;100.00;101130.32;1767243;81;21097;-61
2022/12/15 02:23:36;;;;;;;32.30;18.87;;;;;;;-6.56;100.00;101119.48;1766962;81;21404;-60
2022/12/15 02:26:24;;;;;;;28.05;16.97;;;;;;;-6.61;100.00;101117.11;1765626;81;20985;-62
2022/12/15 02:29:26;;;;;;;29.57;17.85;;;;;;;-6.63;100.00;101114.64;1744830;81;21491;-60
2022/12/15 02:32:13;;;;;;;31.48;18.82;;;;;;;-6.64;100.00;101115.50;1767087;81;21044;-60
2022/12/15 02:34:48;;;;;;;32.95;17.00;;;;;;;-6.68;100.00;101115.22;1756328;80;21167;-64
2022/12/15 02:37:36;;;;;;;29.82;17.52;;;;;;;-6.71;100.00;101118.30;1732590;82;20935;-60
2022/12/15 02:40:07;;;;;;;33.30;19.10;;;;;;;-6.72;100.00;101117.47;1720178;82;20899;-64
2022/12/15 02:42:38;;;;;;;28.25;16.50;;;;;;;-6.71;100.00;101115.31;1703704;84;21121;-60
2022/12/15 02:45:12;;;;;;;35.10;20.17;;;;;;;-6.71;100.00;101111.51;1703797;84;20943;-61
2022/12/15 02:48:12;;;;;;;31.02;18.10;;;;;;;-6.71;100.00;101108.16;1705448;84;21260;-61
2022/12/15 02:51:08;;;;;;;26.62;16.25;;;;;;;-6.70;100.00;101102.23;1703351;84;20955;-61
2022/12/15 02:54:19;;;;;;;26.00;15.80;;;;;;;-6.63;100.00;101101.11;1702941;84;20979;-61
2022/12/15 02:57:10;;;;;;;31.35;17.55;;;;;;;-6.63;100.00;101104.50;1730079;82;21008;-61
2022/12/15 02:59:57;;;;;;;28.30;16.07;;;;;;;-6.63;100.00;101104.50;1706890;82;21166;-60
2022/12/15 03:02:27;;;;;;;24.02;15.30;;;;;;;-6.61;100.00;101107.80;1715741;82;21216;-61
2022/12/15 03:04:54;;;;;;;27.85;15.25;;;;;;;-6.59;100.00;101107.77;1732803;82;22376;-65
2022/12/15 03:07:22;;;;;;;26.33;15.48;;;;;;;-6.58;100.00;101106.88;1706213;82;21078;-60
2022/12/15 03:09:49;;;;;;;26.97;15.78;;;;;;;-6.59;100.00;101103.95;1733016;82;21558;-60
2022/12/15 03:12:16;;;;;;;24.70;16.32;;;;;;;-6.60;100.00;101106.08;1733210;82;21613;-60
2022/12/15 03:14:44;;;;;;;28.98;16.57;;;;;;;-6.59;100.00;101114.09;1732398;82;21292;-60
2022/12/15 03:17:12;;;;;;;28.60;16.25;;;;;;;-6.59;100.00;101101.83;1732460;82;21014;-64
2022/12/15 03:19:39;;;;;;;25.82;15.35;;;;;;;-6.59;100.00;101095.49;1733241;82;22359;-60
2022/12/15 03:22:06;;;;;;;23.67;13.90;;;;;;;-6.56;100.00;101101.29;1733027;82;21482;-60
2022/12/15 03:24:34;;;;;;;23.73;14.15;;;;;;;-6.55;100.00;101102.97;1693642;81;21044;-60
2022/12/15 03:27:01;;;;;;;24.85;14.58;;;;;;;-6.52;100.00;101103.28;1697674;84;21536;-60
2022/12/15 03:29:29;;;;;;;26.90;14.58;;;;;;;-6.50;100.00;101096.46;1696274;84;21422;-60
2022/12/15 03:31:56;;;;;;;22.25;13.68;;;;;;;-6.49;100.00;101098.11;1702383;84;21458;-60
2022/12/15 03:34:23;;;;;;;25.00;15.58;;;;;;;-6.49;100.00;101090.50;1701492;84;21073;-60
2022/12/15 03:36:50;;;;;;;25.77;16.20;;;;;;;-6.47;100.00;101090.02;1702117;84;21090;-60
2022/12/15 03:39:16;;;;;;;26.50;15.98;;;;;;;-6.46;100.00;101087.41;1701749;84;21259;-61
2022/12/15 03:41:43;;;;;;;21.87;14.33;;;;;;;-6.44;100.00;101092.42;1698990;84;21380;-60
2022/12/15 03:44:10;;;;;;;25.50;14.95;;;;;;;-6.42;100.00;101091.94;1673577;85;21503;-63
2022/12/15 03:46:38;;;;;;;23.67;14.60;;;;;;;-6.39;100.00;101086.32;1673602;85;21340;-60
2022/12/15 03:49:05;;;;;;;25.68;14.43;;;;;;;-6.38;100.00;101080.80;1673815;85;21102;-60
2022/12/15 03:51:33;;;;;;;28.77;16.23;;;;;;;-6.35;100.00;101087.04;1673106;85;21907;-60
2022/12/15 03:54:00;;;;;;;25.10;14.43;;;;;;;-6.32;100.00;101083.13;1673771;85;21085;-61
2022/12/15 03:56:27;;;;;;;27.05;15.40;;;;;;;-6.25;100.00;101086.25;1673087;85;21098;-62
2022/12/15 03:58:54;;;;;;;29.65;15.80;;;;;;;-6.17;100.00;101086.38;1673787;85;21089;-60
2022/12/15 04:01:29;;;;;;;28.80;17.05;;;;;;;-6.19;100.00;101090.67;1673411;85;21521;-62
2022/12/15 04:03:56;;;;;;;26.05;15.25;;;;;;;-6.13;100.00;101090.91;1673990;85;21233;-60
2022/12/15 04:06:24;;;;;;;29.05;16.97;;;;;;;-6.05;100.00;101093.16;1684870;84;20979;-62
2022/12/15 04:08:51;;;;;;;27.70;16.40;;;;;;;-5.97;100.00;101097.51;1709287;82;21089;-60
2022/12/15 04:11:18;;;;;;;25.37;15.43;;;;;;;-5.89;100.00;101108.99;1717747;82;21091;-61
2022/12/15 04:13:46;;;;;;;27.27;15.88;;;;;;;-5.84;100.00;101107.55;1700658;84;22337;-61
2022/12/15 04:16:14;;;;;;;25.27;15.35;;;;;;;-5.77;100.00;101106.88;1700093;84;21165;-63
2022/12/15 04:18:41;;;;;;;27.95;17.92;;;;;;;-5.71;100.00;101107.94;1700432;84;21006;-60
2022/12/15 04:21:08;;;;;;;27.25;16.65;;;;;;;-5.65;100.00;101112.31;1700674;84;20864;-59
2022/12/15 04:23:35;;;;;;;29.82;16.57;;;;;;;-5.61;100.00;101109.22;1700204;84;20955;-59
2022/12/15 05:32:40;;;;;;;29.90;15.98;;;;;;;-5.43;100.00;101092.44;1702768;84;21074;-62
2022/12/15 05:35:07;;;;;;;28.70;17.73;;;;;;;-5.41;100.00;101080.52;1702907;84;21158;-62
2022/12/15 05:37:35;;;;;;;29.92;18.23;;;;;;;-5.39;100.00;101088.89;1702028;84;20943;-62
2022/12/15 05:40:03;;;;;;;30.52;18.50;;;;;;;-5.35;100.00;101085.78;1702083;84;21006;-61
2022/12/15 05:42:30;;;;;;;30.92;17.25;;;;;;;-5.31;100.00;101081.78;1702797;84;21070;-61
2022/12/15 05:44:57;;;;;;;31.68;17.87;;;;;;;-5.23;100.00;101092.50;1702785;84;21016;-60
2022/12/15 05:47:24;;;;;;;28.92;17.37;;;;;;;-5.12;100.00;101102.66;1701785;84;21587;-61
2022/12/15 05:49:50;;;;;;;30.65;16.87;;;;;;;-5.03;100.00;101105.66;1702282;84;21331;-65
2022/12/15 05:52:17;;;;;;;30.12;17.12;;;;;;;-4.91;100.00;101101.79;1702608;84;22422;-62
2022/12/15 05:54:44;;;;;;;32.73;16.35;;;;;;;-4.77;100.00;101094.42;1702786;84;21489;-61
2022/12/15 05:57:11;;;;;;;28.40;17.25;;;;;;;-4.57;100.00;101097.38;1702730;84;21045;-65
2022/12/15 05:59:37;;;;;;;28.65;18.00;;;;;;;-4.21;100.00;101096.22;1702456;84;20975;-61
2022/12/15 06:02:04;;;;;;;30.85;18.00;;;;;;;-3.85;100.00;101085.29;1702115;84;21323;-61
2022/12/15 06:04:31;;;;;;;27.42;17.73;;;;;;;-3.55;100.00;101083.49;1702769;84;21600;-61
2022/12/15 06:06:57;;;;;;;29.42;18.50;;;;;;;-3.31;100.00;101075.12;1702891;84;20994;-66
2022/12/15 06:09:24;;;;;;;29.50;16.93;;;;;;;-3.13;100.00;101075.50;1702398;84;20996;-66
2022/12/15 06:11:52;;;;;;;31.65;18.60;;;;;;;-3.19;100.00;101070.69;1702442;84;20962;-67
2022/12/15 06:14:19;;;;;;;28.40;17.70;;;;;;;-3.42;100.00;101066.25;1702935;84;22140;-68
2022/12/15 06:16:45;;;;;;;27.15;16.97;;;;;;;-3.54;100.00;101071.12;1702762;84;20947;-68
2022/12/15 06:19:12;;;;;;;29.92;18.52;;;;;;;-3.55;100.00;101074.58;1702070;84;21010;-67
2022/12/15 06:21:39;;;;;;;28.98;18.75;;;;;;;-3.54;100.00;101080.86;1702384;84;21421;-66
2022/12/15 06:24:07;;;;;;;28.67;18.50;;;;;;;-3.46;100.00;101075.40;1702006;84;20999;-67
2022/12/15 06:26:38;;;;;;;30.60;18.12;;;;;;;-3.43;100.00;101080.36;1700774;84;21278;-69
2022/12/15 06:29:07;;;;;;;27.85;17.40;;;;;;;-3.38;100.00;101077.13;1702554;84;20902;-67
2022/12/15 06:31:35;;;;;;;26.95;17.52;;;;;;;-3.07;100.00;101085.84;1702177;84;21068;-66
2022/12/15 06:34:07;;;;;;;29.95;18.10;;;;;;;-2.59;100.00;101074.91;1701160;82;20985;-67
2022/12/15 06:36:34;;;;;;;27.77;17.40;;;;;;;-2.08;100.00;101083.79;1702319;84;21119;-66
2022/12/15 06:39:03;;;;;;;27.73;17.57;;;;;;;-1.61;100.00;101084.22;1697500;84;21772;-66
2022/12/15 06:41:30;;;;;;;27.35;16.77;;;;;;;-1.25;100.00;101074.50;1696784;84;21606;-69
2022/12/15 06:43:57;;;;;;;29.55;17.20;;;;;;;-0.93;100.00;101078.22;1672823;85;20916;-68
2022/12/15 06:46:25;;;;;;;27.67;17.65;;;;;;;-0.60;100.00;101074.61;1674065;85;22247;-67
2022/12/15 06:48:52;;;;;;;27.22;18.23;;;;;;;-0.33;100.00;101065.73;1674152;85;21518;-67
2022/12/15 06:51:19;;;;;;;30.40;18.20;;;;;;;-0.15;100.00;101069.73;1664594;84;21132;-67
2022/12/15 06:53:49;;;;;;;27.58;18.12;;;;;;;0.09;100.00;101069.13;1673472;84;21424;-71
2022/12/15 06:56:23;;;;;;;29.05;18.02;;;;;;;0.32;100.00;101070.25;1664752;85;21090;-68
2022/12/15 06:58:50;;;;;;;25.27;17.65;;;;;;;0.46;100.00;101054.36;1646634;86;20988;-68
2022/12/15 07:01:22;;;;;;;25.37;17.35;;;;;;;0.60;100.00;101058.58;1646689;87;21585;-68
2022/12/15 07:03:49;;;;;;;24.72;16.85;;;;;;;0.76;100.00;101049.88;1645392;87;21949;-69
2022/12/15 07:06:17;;;;;;;24.07;16.27;;;;;;;0.84;100.00;101047.67;1646522;85;21035;-66
2022/12/15 07:08:51;;;;;;;20.17;15.40;;;;;;;0.92;100.00;101045.41;1646868;87;21024;-68
2022/12/15 07:11:19;;;;;;;24.75;15.68;;;;;;;1.06;100.00;101043.19;1673915;85;21017;-66
2022/12/15 07:13:51;;;;;;;28.02;18.82;;;;;;;1.02;100.00;101031.02;1673095;85;20906;-73
2022/12/15 07:16:20;;;;;;;24.00;17.02;;;;;;;0.75;100.00;101040.09;1673776;85;21106;-67
2022/12/15 07:18:47;;;;;;;27.30;15.72;;;;;;;0.32;100.00;101040.77;1673814;85;21416;-66
2022/12/15 07:21:14;;;;;;;26.95;17.25;;;;;;;-0.04;100.00;101050.68;1673912;84;20903;-68
2022/12/15 07:23:42;;;;;;;24.32;15.80;;;;;;;-0.25;100.00;101045.12;1673567;85;21021;-71
2022/12/15 07:26:09;;;;;;;24.87;16.50;;;;;;;-0.35;100.00;101040.19;1695101;83;21105;-68
2022/12/15 07:28:36;;;;;;;25.02;16.25;;;;;;;-0.29;100.00;101042.39;1696600;84;21260;-68
2022/12/15 07:31:26;;;;;;;23.70;15.35;;;;;;;-0.17;100.00;101029.27;1696509;83;20946;-69
2022/12/15 07:33:53;;;;;;;24.87;16.23;;;;;;;-0.02;100.00;101024.94;1737367;82;21061;-65
2022/12/15 07:36:20;;;;;;;23.80;16.17;;;;;;;0.08;100.00;101036.73;1770423;81;21348;-65
2022/12/15 07:38:49;;;;;;;26.17;16.50;;;;;;;0.25;100.00;101037.77;1768716;81;20984;-66
2022/12/15 07:41:17;;;;;;;26.17;16.30;;;;;;;0.55;100.00;101044.42;1769563;79;21151;-66
2022/12/15 07:43:45;;;;;;;22.40;14.80;;;;;;;0.82;100.00;101040.52;1767863;79;21100;-67
2022/12/15 07:46:12;;;;;;;23.47;15.08;;;;;;;0.92;100.00;101031.30;1762162;79;20994;-68
2022/12/15 07:48:39;;;;;;;24.80;16.67;;;;;;;0.93;100.00;101033.75;1768002;79;21327;-67
2022/12/15 07:51:07;;;;;;;25.02;16.35;;;;;;;0.89;100.00;101016.09;1765108;79;21033;-67
2022/12/15 07:53:34;;;;;;;25.23;16.75;;;;;;;0.84;100.00;101000.19;1737354;82;21081;-68
2022/12/15 07:56:03;;;;;;;28.77;18.55;;;;;;;0.75;100.00;101009.76;1768116;81;21927;-68
2022/12/15 07:58:30;;;;;;;28.85;17.15;;;;;;;0.63;100.00;101005.79;1758245;79;21034;-67
2022/12/15 08:01:01;;;;;;;26.93;15.40;;;;;;;0.65;100.00;101002.68;1734090;81;21073;-69
2022/12/15 08:03:29;;;;;;;25.27;17.02;;;;;;;0.76;100.00;101007.55;1769841;79;21065;-66
2022/12/15 08:05:56;;;;;;;23.85;15.88;;;;;;;0.84;100.00;101012.55;1766186;80;21742;-67
2022/12/15 08:08:23;;;;;;;25.85;16.00;;;;;;;0.94;100.00;101013.56;1743057;79;21079;-66
2022/12/15 08:10:51;;;;;;;23.77;14.23;;;;;;;1.14;100.00;101008.86;1762480;79;21035;-67
2022/12/15 08:13:18;;;;;;;21.42;13.68;;;;;;;1.33;100.00;101002.83;1765890;81;20936;-67
2022/12/15 08:15:46;;;;;;;22.20;12.95;;;;;;;1.45;100.00;100999.87;1765947;80;20928;-67
2022/12/15 08:18:14;;;;;;;18.92;12.68;;;;;;;1.55;100.00;100995.73;1759998;79;21156;-68
2022/12/15 08:20:44;;;;;;;16.95;10.82;;;;;;;1.66;100.00;100990.66;1756825;79;20997;-67
2022/12/15 08:23:27;;;;;;;17.65;11.08;;;;;;;1.76;100.00;100990.03;1746137;79;21533;-68
2022/12/15 08:25:54;;;;;;;18.70;11.70;;;;;;;1.80;100.00;100990.17;1771897;79;20941;-69
2022/12/15 08:28:21;;;;;;;16.97;10.40;;;;;;;1.90;100.00;100977.03;1735974;81;21527;-69
2022/12/15 08:30:58;;;;;;;16.00;9.55;;;;;;;2.10;100.00;100980.27;1769972;81;21495;-67
2022/12/15 08:33:27;;;;;;;15.95;9.30;;;;;;;2.27;100.00;100974.36;1765690;80;20987;-68
2022/12/15 08:36:00;;;;;;;20.90;9.75;;;;;;;2.29;100.00;100977.66;1732773;81;21131;-70
2022/12/15 08:38:30;;;;;;;16.30;8.80;;;;;;;2.34;100.00;100976.37;1766503;81;20954;-70
2022/12/15 08:40:57;;;;;;;18.50;9.73;;;;;;;2.37;100.00;100980.48;1765542;81;21767;-69
2022/12/15 08:43:28;;;;;;;16.10;9.53;;;;;;;2.37;100.00;100986.45;1764980;81;21133;-68
2022/12/15 08:46:01;;;;;;;14.60;8.95;;;;;;;2.34;100.00;100976.37;1765636;81;22015;-69
2022/12/15 08:48:37;;;;;;;14.00;8.93;;;;;;;2.33;100.00;100967.50;1765784;81;21105;-68
2022/12/15 08:51:05;;;;;;;16.30;8.88;;;;;;;2.24;100.00;100969.00;1769564;79;21418;-67
2022/12/15 08:53:32;;;;;;;14.80;8.70;;;;;;;2.21;100.00;100968.39;1770362;79;21413;-71
2022/12/15 08:56:10;;;;;;;16.27;8.55;;;;;;;2.24;100.00;100966.42;1769608;79;21118;-69
2022/12/15 08:58:35;;;;;;;14.98;9.58;;;;;;;2.44;100.00;100961.91;1737191;81;21481;-70
2022/12/15 09:01:14;;;;;;;17.87;10.82;;;;;;;2.72;100.00;100960.33;1769752;80;21144;-69
2022/12/15 09:03:41;;;;;;;16.97;9.48;;;;;;;2.81;100.00;100945.49;1770007;81;21004;-72
2022/12/15 09:06:17;;;;;;;27.00;13.28;;;;;;;2.72;100.00;100951.31;1769402;81;20891;-68
2022/12/15 09:08:46;;;;;;;13.83;8.53;;;;;;;2.61;100.00;100945.23;1770114;79;21213;-68
2022/12/15 09:11:21;;;;;;;13.60;8.28;;;;;;;2.43;100.00;100951.28;1792935;79;21392;-70
2022/12/15 09:13:45;;;;;;;15.45;9.80;;;;;;;2.27;100.00;100940.45;1770822;79;20890;-69
2022/12/15 09:16:15;;;;;;;14.70;9.48;;;;;;;2.17;100.00;100942.89;1769028;81;21132;-71
2022/12/15 09:18:44;;;;;;;13.53;8.68;;;;;;;2.02;100.00;100935.00;1769269;79;21535;-68
2022/12/15 09:21:11;;;;;;;13.78;8.65;;;;;;;1.99;100.00;100938.27;1769204;79;21318;-71
2022/12/15 09:23:38;;;;;;;18.70;9.75;;;;;;;1.94;100.00;100937.31;1769669;81;21036;-71
2022/12/15 09:26:10;;;;;;;22.52;12.23;;;;;;;1.97;100.00;100936.25;1769936;79;21531;-70
2022/12/15 09:28:37;;;;;;;15.23;9.15;;;;;;;2.01;100.00;100932.09;1769837;79;21524;-70
2022/12/15 09:31:20;;;;;;;13.88;8.55;;;;;;;2.07;100.00;100924.38;1770124;79;20934;-71
2022/12/15 09:33:49;;;;;;;12.60;7.90;;;;;;;2.08;100.00;100919.58;1769790;79;21838;-71
2022/12/15 09:36:16;;;;;;;11.93;7.08;;;;;;;2.07;100.00;100920.05;1769758;81;20957;-71
2022/12/15 09:38:46;;;;;;;15.78;9.20;;;;;;;2.00;100.00;100904.71;1770238;79;21487;-72
2022/12/15 09:41:18;;;;;;;12.82;7.92;;;;;;;1.88;100.00;100904.33;1742064;81;21463;-71
2022/12/15 09:44:04;;;;;;;10.32;6.72;;;;;;;1.86;100.00;100890.78;1793467;78;20986;-68
2022/12/15 09:47:11;;;;;;;10.65;7.40;;;;;;;1.80;100.00;100887.35;1770539;79;21163;-71
2022/12/15 09:49:56;;;;;;;10.08;6.90;;;;;;;1.72;100.00;100878.91;1768049;81;21215;-71
2022/12/15 09:52:34;;;;;;;35.73;30.37;;;;;;;1.63;100.00;100873.12;1767163;81;21001;-71
2022/12/15 09:55:08;;;;;;;12.47;10.60;;;;;;;1.59;100.00;100873.00;1706003;82;20946;-69
2022/12/15 09:57:50;;;;;;;12.28;6.47;;;;;;;1.57;100.00;100867.16;1652933;84;21094;-71
2022/12/15 10:00:45;;;;;;;10.28;6.40;;;;;;;1.52;100.00;100868.78;1737491;79;21220;-71
2022/12/15 10:03:41;;;;;;;11.10;7.30;;;;;;;1.49;100.00;100867.71;1767194;81;20938;-71
2022/12/15 10:06:17;;;;;;;12.07;6.87;;;;;;;1.44;100.00;100863.38;1765283;79;21022;-69
2022/12/15 10:08:56;;;;;;;11.43;6.72;;;;;;;1.41;100.00;100859.73;1747977;81;20935;-70
2022/12/15 10:11:49;;;;;;;10.75;6.15;;;;;;;1.32;100.00;100832.12;1720543;81;21501;-71
2022/12/15 10:14:30;;;;;;;10.15;5.62;;;;;;;1.22;100.00;100844.81;1738538;81;21512;-68
2022/12/15 10:17:24;;;;;;;16.95;10.13;;;;;;;1.15;100.00;100840.56;1725366;82;20963;-69
2022/12/15 10:20:09;;;;;;;13.30;7.87;;;;;;;1.12;100.00;100836.10;1736956;82;21049;-69
2022/12/15 10:22:36;;;;;;;10.65;7.22;;;;;;;1.09;100.00;100830.70;1724818;82;21064;-68
2022/12/15 10:25:20;;;;;;;16.45;9.50;;;;;;;1.07;100.00;100826.16;1755154;81;21004;-70
2022/12/15 10:28:17;;;;;;;14.23;8.65;;;;;;;1.07;100.00;100814.61;1688212;81;22334;-70
2022/12/15 10:30:58;;;;;;;12.55;7.80;;;;;;;1.06;100.00;100810.41;1747600;81;21168;-70
2022/12/15 10:33:37;;;;;;;13.83;8.35;;;;;;;1.07;100.00;100809.47;1770948;80;21069;-69
2022/12/15 10:36:12;;;;;;;13.90;8.08;;;;;;;1.12;100.00;100802.72;1724550;82;22036;-69
2022/12/15 10:38:46;;;;;;;99.60;79.75;;;;;;;1.19;100.00;100793.66;1765588;80;20991;-69
2022/12/15 10:41:20;;;;;;;12.55;7.42;;;;;;;1.25;100.00;100800.09;1763942;81;21306;-66
2022/12/15 10:43:49;;;;;;;15.78;10.60;;;;;;;1.28;100.00;100799.87;1763796;81;21086;-70
2022/12/15 10:46:26;;;;;;;11.10;6.92;;;;;;;1.27;100.00;100800.81;1764410;81;21030;-70
2022/12/15 10:49:11;;;;;;;17.15;7.62;;;;;;;1.25;100.00;100797.52;1763810;81;21120;-68
2022/12/15 10:51:54;;;;;;;15.80;8.48;;;;;;;1.25;100.00;100803.51;1764207;81;21058;-69
2022/12/15 10:54:21;;;;;;;13.50;7.97;;;;;;;1.23;100.00;100805.82;1720081;82;22487;-69
2022/12/15 10:56:59;;;;;;;13.40;7.47;;;;;;;1.22;100.00;100798.58;1763431;81;20974;-67
2022/12/15 10:59:33;;;;;;;17.40;7.33;;;;;;;1.18;100.00;100783.05;1762818;79;21332;-69
2022/12/15 11:02:23;;;;;;;18.70;10.85;;;;;;;1.15;100.00;100796.09;1775060;80;21019;-69
2022/12/15 11:05:15;;;;;;;17.73;8.98;;;;;;;1.09;100.00;100783.21;1764086;81;21022;-69
2022/12/15 11:07:57;;;;;;;14.75;8.63;;;;;;;1.06;100.00;100777.03;1763935;79;21213;-68
2022/12/15 11:12:50;;;;;;;17.07;9.15;;;;;;;1.07;100.00;100784.27;1764848;79;21042;-69
2022/12/15 11:13:12;;;;;;;16.75;7.92;;;;;;;1.09;100.00;100773.41;1765509;79;20964;-68
2022/12/15 11:15:49;;;;;;;16.23;9.03;;;;;;;1.05;100.00;100768.95;1784508;79;20923;-68
2022/12/15 11:18:50;;;;;;;13.90;7.47;;;;;;;1.01;100.00;100767.53;1718965;82;20932;-67
2022/12/15 11:21:26;;;;;;;20.52;7.50;;;;;;;0.95;100.00;100776.97;1764596;81;21196;-69
2022/12/15 11:24:28;;;;;;;19.40;9.05;;;;;;;0.96;100.00;100767.05;1748003;79;21592;-68
2022/12/15 11:27:16;;;;;;;11.63;6.55;;;;;;;0.97;100.00;100768.69;1687460;84;21987;-69
2022/12/15 11:30:03;;;;;;;16.02;7.22;;;;;;;0.98;100.00;100783.15;1745327;79;21045;-69
2022/12/15 11:32:34;;;;;;;15.65;7.65;;;;;;;0.96;100.00;100763.20;1735390;82;21064;-68
2022/12/15 11:35:01;;;;;;;15.40;6.72;;;;;;;0.97;100.00;100773.81;1739850;82;21334;-68
2022/12/15 11:37:42;;;;;;;15.70;9.70;;;;;;;0.97;100.00;100773.81;1739678;82;20915;-68
2022/12/15 11:40:36;;;;;;;12.45;6.80;;;;;;;0.98;100.00;100772.88;1738542;82;21072;-69
2022/12/15 11:43:32;;;;;;;10.80;6.75;;;;;;;1.03;100.00;100768.73;1739180;82;22230;-67
2022/12/15 11:46:21;;;;;;;11.38;6.87;;;;;;;1.05;100.00;100762.53;1739308;82;21014;-67
2022/12/15 11:49:02;;;;;;;11.88;7.47;;;;;;;1.07;100.00;100752.99;1709566;82;21250;-69
2022/12/15 11:51:47;;;;;;;10.43;6.50;;;;;;;1.05;100.00;100759.97;1739088;81;21476;-68
2022/12/15 11:54:36;;;;;;;12.55;7.80;;;;;;;1.05;100.00;100750.98;1739251;81;20998;-65
2022/12/15 11:57:39;;;;;;;19.70;7.80;;;;;;;1.07;100.00;100744.01;1739518;82;21397;-68
2022/12/15 12:00:20;;;;;;;9.60;7.25;;;;;;;1.07;100.00;100756.84;1739698;81;21407;-68
2022/12/15 12:03:18;;;;;;;9.78;6.78;;;;;;;1.08;100.00;100740.50;1740003;82;22336;-69
2022/12/15 12:06:11;;;;;;;10.70;7.25;;;;;;;1.08;100.00;100742.25;1739487;82;20947;-70
2022/12/15 12:09:06;;;;;;;12.47;7.80;;;;;;;1.01;100.00;100722.61;1688817;84;21019;-70
2022/12/15 12:11:40;;;;;;;10.48;6.80;;;;;;;0.98;100.00;100722.83;1678518;85;20958;-70
2022/12/15 12:14:15;;;;;;;10.25;7.08;;;;;;;0.95;100.00;100718.75;1736270;82;21417;-67
2022/12/15 12:17:06;;;;;;;13.98;8.00;;;;;;;0.92;100.00;100717.69;1739591;81;21163;-70
2022/12/15 12:19:50;;;;;;;10.93;7.70;;;;;;;0.90;100.00;100724.66;1739013;82;21034;-70
2022/12/15 12:22:27;;;;;;;11.53;7.62;;;;;;;0.90;100.00;100718.70;1739149;82;21478;-71
2022/12/15 12:25:04;;;;;;;11.57;6.95;;;;;;;0.90;100.00;100716.14;1739050;81;20997;-70
2022/12/15 12:27:54;;;;;;;10.85;7.28;;;;;;;0.91;100.00;100727.60;1738846;82;21488;-67
2022/12/15 12:30:25;;;;;;;12.58;7.90;;;;;;;0.90;100.00;100716.95;1732142;81;20986;-71
2022/12/15 12:33:03;;;;;;;11.22;7.47;;;;;;;0.91;100.00;100716.48;1739562;81;20994;-70
2022/12/15 12:35:49;;;;;;;10.98;7.12;;;;;;;0.91;100.00;100712.64;1739025;81;21551;-68
2022/12/15 12:38:19;;;;;;;11.33;7.75;;;;;;;0.92;100.00;100704.03;1739676;82;21017;-69
2022/12/15 12:41:24;;;;;;;11.05;7.45;;;;;;;0.88;100.00;100699.58;1712397;82;21611;-68
2022/12/15 12:43:57;;;;;;;10.93;7.53;;;;;;;0.89;100.00;100709.38;1731783;82;22226;-68
2022/12/15 12:46:30;;;;;;;10.95;7.90;;;;;;;0.86;100.00;100695.48;1738361;81;21513;-70
2022/12/15 12:49:20;;;;;;;12.30;7.90;;;;;;;0.85;100.00;100696.41;1738643;82;21594;-69
2022/12/15 12:51:52;;;;;;;12.53;7.47;;;;;;;0.85;100.00;100692.56;1739655;82;21061;-66
2022/12/15 12:54:39;;;;;;;11.65;7.58;;;;;;;0.82;100.00;100704.33;1738985;82;20979;-68
2022/12/15 12:57:16;;;;;;;13.05;7.50;;;;;;;0.83;100.00;100687.98;1739175;82;21026;-70
2022/12/15 12:59:57;;;;;;;15.40;8.28;;;;;;;0.82;100.00;100693.59;1738444;82;20994;-71
2022/12/15 13:02:29;;;;;;;11.88;8.20;;;;;;;0.82;100.00;100686.36;1738823;82;21069;-70
2022/12/15 13:05:27;;;;;;;14.83;9.35;;;;;;;0.79;100.00;100685.29;1739777;81;21049;-68
2022/12/15 13:08:08;;;;;;;13.62;8.70;;;;;;;0.79;100.00;100694.27;1711642;82;21409;-69
2022/12/15 13:10:39;;;;;;;;;;;;;;;0.75;100.00;100687.25;1742595;82;21955;-68
2022/12/15 13:13:28;;;;;;;15.32;9.38;;;;;;;0.75;100.00;100689.00;1739456;82;20140;-69
2022/12/15 13:16:24;;;;;;;15.10;9.00;;;;;;;0.75;100.00;100682.59;1739581;82;21439;-71
2022/12/15 13:19:02;;;;;;;13.38;8.03;;;;;;;0.73;100.00;100683.53;1683907;82;21970;-70
2022/12/15 13:21:50;;;;;;;18.15;10.90;;;;;;;0.71;100.00;100678.14;1739878;82;21128;-68
2022/12/15 13:24:33;;;;;;;14.60;8.80;;;;;;;0.70;100.00;100692.72;1739832;82;21684;-68
2022/12/15 13:27:12;;;;;;;18.80;10.05;;;;;;;0.68;100.00;100679.20;1739644;81;21120;-71
2022/12/15 13:30:08;;;;;;;14.07;9.35;;;;;;;0.68;100.00;100679.63;1739093;81;21046;-72
2022/12/15 13:32:46;;;;;;;14.68;9.30;;;;;;;0.65;100.00;100683.72;1739828;82;20906;-72
2022/12/15 13:35:24;;;;;;;14.83;9.05;;;;;;;0.65;100.00;100693.52;1711255;82;21662;-70
2022/12/15 13:38:07;;;;;;;14.55;9.75;;;;;;;0.63;100.00;100685.56;1713257;82;21244;-71
2022/12/15 13:40:48;;;;;;;19.87;11.48;;;;;;;0.63;100.00;100677.87;1738872;82;21338;-68
2022/12/15 13:43:39;;;;;;;16.23;10.15;;;;;;;0.61;100.00;100674.61;1739320;82;21549;-69
2022/12/15 13:46:13;;;;;;;19.07;11.68;;;;;;;0.58;100.00;100692.31;1739553;82;21121;-70
2022/12/15 13:48:44;;;;;;;18.65;12.03;;;;;;;0.57;100.00;100688.55;1738820;82;21529;-70
2022/12/15 13:51:32;;;;;;;18.17;11.95;;;;;;;0.53;100.00;100682.84;1712386;82;21912;-69
2022/12/15 13:54:20;;;;;;;18.85;11.90;;;;;;;0.52;100.00;100685.50;1739047;81;20990;-69
2022/12/15 13:57:14;;;;;;;21.85;11.95;;;;;;;0.46;100.00;100679.06;1738990;81;21435;-69
2022/12/15 13:59:45;;;;;;;18.67;11.60;;;;;;;0.47;100.00;100680.70;1739304;82;21526;-70
2022/12/15 14:02:32;;;;;;;19.35;13.00;;;;;;;0.46;100.00;100667.53;1738918;82;21065;-70
2022/12/15 14:05:21;;;;;;;19.07;13.60;;;;;;;0.45;100.00;100666.69;1739481;81;22195;-69